Decoded Metar for LFRI (LA ROCHE-SUR-YON in FRANCE) (IATA:EDM) | Meteo·Mobile Aviation Weather
aviador You're here:

LFRI Decoded Metar

LA ROCHE-SUR-YON in FRANCE
Report Time2019-09-23 09:00:00
UTC Time2019-09-23 09:18:24
Flight Rules vfr VFR
Wind170° at 07 kt
W.Decomp.*RWY 10: 2.2 kt HW 6.7 kt RCW
Visibility9999 m
Phenomena:N/A
Clouds:N/A
Expected CloudBase > 800 ft AGL from Temp-Dew spread
CeilingNone
Temp17°C (ISA +3)
Dew Point15°C (88% RH)
AAT16.1°C
QNH1017 hPa
Density Alt699 ft
Elevation299 ft
Report Wrong Elevation
Raw Report
METAR LFRI 230900Z AUTO 17007KT 9999 ///TCU 17/15 Q1017 TEMPO 4000
SHRA=

Extra information for LFRI:More info

Metar Taf Metar & Taf Last 4 Metars F.Rules Stats Wind Profile Meteogram Temp Stats Airport Information Weather charts Add Link Nearby VenuesMetar ALERT Operation Metar Decoded Social comments